sensor_id;sensor_type;location;lat;lon;timestamp;pressure;altitude;pressure_sealevel;temperature;humidity
75172;BME280;63750;52.418;20.742;2024-02-23T00:01:43;98626.55;;;10.30;59.66
75172;BME280;63750;52.418;20.742;2024-02-23T00:04:11;98622.89;;;10.28;59.78
75172;BME280;63750;52.418;20.742;2024-02-23T00:06:39;98623.59;;;10.32;59.72
75172;BME280;63750;52.418;20.742;2024-02-23T00:09:08;98625.98;;;10.26;59.71
75172;BME280;63750;52.418;20.742;2024-02-23T00:11:36;98629.91;;;10.24;59.52
75172;BME280;63750;52.418;20.742;2024-02-23T00:14:06;98624.02;;;10.15;59.88
75172;BME280;63750;52.418;20.742;2024-02-23T00:16:40;98623.69;;;10.13;59.93
75172;BME280;63750;52.418;20.742;2024-02-23T00:19:17;98622.68;;;10.14;59.96
75172;BME280;63750;52.418;20.742;2024-02-23T00:21:46;98623.79;;;10.19;59.81
75172;BME280;63750;52.418;20.742;2024-02-23T00:24:14;98627.49;;;10.29;59.72
75172;BME280;63750;52.418;20.742;2024-02-23T00:26:42;98625.40;;;10.26;59.64
75172;BME280;63750;52.418;20.742;2024-02-23T00:29:10;98625.63;;;10.24;59.72
75172;BME280;63750;52.418;20.742;2024-02-23T00:34:26;98626.73;;;10.24;59.76
75172;BME280;63750;52.418;20.742;2024-02-23T00:36:54;98617.06;;;10.17;59.57
75172;BME280;63750;52.418;20.742;2024-02-23T00:39:22;98616.71;;;10.17;60.13
75172;BME280;63750;52.418;20.742;2024-02-23T00:41:50;98612.70;;;10.20;59.70
75172;BME280;63750;52.418;20.742;2024-02-23T00:44:18;98608.16;;;10.22;59.82
75172;BME280;63750;52.418;20.742;2024-02-23T00:46:47;98610.67;;;10.24;59.95
75172;BME280;63750;52.418;20.742;2024-02-23T00:49:15;98610.61;;;10.18;59.75
75172;BME280;63750;52.418;20.742;2024-02-23T00:51:44;98603.77;;;10.19;59.71
75172;BME280;63750;52.418;20.742;2024-02-23T00:54:12;98593.27;;;10.18;59.75
75172;BME280;63750;52.418;20.742;2024-02-23T00:56:40;98592.69;;;10.18;59.90
75172;BME280;63750;52.418;20.742;2024-02-23T00:59:08;98590.69;;;10.17;59.80
75172;BME280;63750;52.418;20.742;2024-02-23T01:01:36;98582.40;;;10.15;59.53
75172;BME280;63750;52.418;20.742;2024-02-23T01:04:05;98578.72;;;10.20;59.83
75172;BME280;63750;52.418;20.742;2024-02-23T01:06:33;98571.12;;;10.21;59.95
75172;BME280;63750;52.418;20.742;2024-02-23T01:09:01;98566.20;;;10.24;59.76
75172;BME280;63750;52.418;20.742;2024-02-23T01:11:33;98568.20;;;10.27;59.50
75172;BME280;63750;52.418;20.742;2024-02-23T01:14:01;98572.83;;;10.25;59.81
75172;BME280;63750;52.418;20.742;2024-02-23T01:16:31;98570.45;;;10.24;59.51
75172;BME280;63750;52.418;20.742;2024-02-23T01:19:02;98568.55;;;10.22;59.64
75172;BME280;63750;52.418;20.742;2024-02-23T01:21:30;98561.73;;;10.26;59.98
75172;BME280;63750;52.418;20.742;2024-02-23T01:23:58;98564.34;;;10.33;59.60
75172;BME280;63750;52.418;20.742;2024-02-23T01:26:26;98567.00;;;10.28;59.45
75172;BME280;63750;52.418;20.742;2024-02-23T01:28:54;98563.56;;;10.25;59.31
75172;BME280;63750;52.418;20.742;2024-02-23T01:31:22;98566.33;;;10.24;59.63
75172;BME280;63750;52.418;20.742;2024-02-23T01:33:50;98575.67;;;10.20;59.88
75172;BME280;63750;52.418;20.742;2024-02-23T01:36:19;98575.31;;;10.23;59.99
75172;BME280;63750;52.418;20.742;2024-02-23T01:38:47;98575.30;;;10.23;60.00
75172;BME280;63750;52.418;20.742;2024-02-23T01:41:15;98571.36;;;10.22;59.77
75172;BME280;63750;52.418;20.742;2024-02-23T01:43:43;98569.36;;;10.18;59.90
75172;BME280;63750;52.418;20.742;2024-02-23T01:46:12;98567.63;;;10.21;60.08
75172;BME280;63750;52.418;20.742;2024-02-23T01:48:40;98560.73;;;10.27;59.85
75172;BME280;63750;52.418;20.742;2024-02-23T01:51:08;98560.23;;;10.26;59.92
75172;BME280;63750;52.418;20.742;2024-02-23T01:53:37;98558.61;;;10.25;59.85
75172;BME280;63750;52.418;20.742;2024-02-23T01:56:06;98560.33;;;10.27;59.78
75172;BME280;63750;52.418;20.742;2024-02-23T01:58:34;98559.48;;;10.30;59.81
75172;BME280;63750;52.418;20.742;2024-02-23T02:01:03;98560.63;;;10.28;60.02
75172;BME280;63750;52.418;20.742;2024-02-23T02:03:31;98554.10;;;10.20;60.36
75172;BME280;63750;52.418;20.742;2024-02-23T02:06:00;98547.04;;;10.29;60.22
75172;BME280;63750;52.418;20.742;2024-02-23T02:08:28;98543.03;;;10.33;59.90
75172;BME280;63750;52.418;20.742;2024-02-23T02:10:56;98541.77;;;10.33;60.06
75172;BME280;63750;52.418;20.742;2024-02-23T02:13:25;98541.45;;;10.32;60.09
75172;BME280;63750;52.418;20.742;2024-02-23T02:15:53;98540.16;;;10.30;60.08
75172;BME280;63750;52.418;20.742;2024-02-23T02:18:21;98540.50;;;10.34;59.80
75172;BME280;63750;52.418;20.742;2024-02-23T02:20:53;98540.77;;;10.37;59.91
75172;BME280;63750;52.418;20.742;2024-02-23T02:23:22;98543.20;;;10.39;59.99
75172;BME280;63750;52.418;20.742;2024-02-23T02:25:54;98533.48;;;10.36;59.95
75172;BME280;63750;52.418;20.742;2024-02-23T02:28:23;98530.92;;;10.38;59.97
75172;BME280;63750;52.418;20.742;2024-02-23T02:30:52;98533.36;;;10.40;59.72
75172;BME280;63750;52.418;20.742;2024-02-23T02:33:20;98530.44;;;10.41;59.88
75172;BME280;63750;52.418;20.742;2024-02-23T02:35:49;98530.84;;;10.40;59.76
75172;BME280;63750;52.418;20.742;2024-02-23T02:38:17;98529.57;;;10.41;59.87
75172;BME280;63750;52.418;20.742;2024-02-23T02:40:45;98536.41;;;10.44;59.66
75172;BME280;63750;52.418;20.742;2024-02-23T02:43:13;98535.05;;;10.45;59.60
75172;BME280;63750;52.418;20.742;2024-02-23T02:45:42;98535.53;;;10.40;59.97
75172;BME280;63750;52.418;20.742;2024-02-23T02:48:11;98534.92;;;10.40;60.29
75172;BME280;63750;52.418;20.742;2024-02-23T02:50:39;98536.31;;;10.40;60.11
75172;BME280;63750;52.418;20.742;2024-02-23T02:53:08;98537.15;;;10.39;60.30
75172;BME280;63750;52.418;20.742;2024-02-23T02:55:36;98534.80;;;10.43;60.21
75172;BME280;63750;52.418;20.742;2024-02-23T02:58:04;98541.44;;;10.47;59.95
75172;BME280;63750;52.418;20.742;2024-02-23T03:00:32;98540.08;;;10.40;60.51
75172;BME280;63750;52.418;20.742;2024-02-23T03:03:01;98543.14;;;10.40;60.62
75172;BME280;63750;52.418;20.742;2024-02-23T03:05:29;98548.73;;;10.30;60.90
75172;BME280;63750;52.418;20.742;2024-02-23T03:07:57;98541.40;;;10.29;61.66
75172;BME280;63750;52.418;20.742;2024-02-23T03:10:25;98547.32;;;10.27;62.10
75172;BME280;63750;52.418;20.742;2024-02-23T03:12:53;98545.36;;;10.33;61.85
75172;BME280;63750;52.418;20.742;2024-02-23T03:15:21;98547.09;;;10.27;62.40
75172;BME280;63750;52.418;20.742;2024-02-23T03:17:49;98544.52;;;10.25;62.74
75172;BME280;63750;52.418;20.742;2024-02-23T03:20:17;98546.09;;;10.19;63.16
75172;BME280;63750;52.418;20.742;2024-02-23T03:22:45;98548.61;;;10.14;63.66
75172;BME280;63750;52.418;20.742;2024-02-23T03:25:14;98557.16;;;10.13;63.97
75172;BME280;63750;52.418;20.742;2024-02-23T03:27:42;98551.45;;;10.15;63.93
75172;BME280;63750;52.418;20.742;2024-02-23T03:30:11;98558.31;;;10.11;64.76
75172;BME280;63750;52.418;20.742;2024-02-23T03:32:39;98566.12;;;10.09;64.69
75172;BME280;63750;52.418;20.742;2024-02-23T03:35:09;98570.19;;;10.00;65.34
75172;BME280;63750;52.418;20.742;2024-02-23T03:37:37;98570.08;;;10.04;65.57
75172;BME280;63750;52.418;20.742;2024-02-23T03:40:07;98569.33;;;9.99;66.20
75172;BME280;63750;52.418;20.742;2024-02-23T03:42:37;98572.33;;;10.02;66.44
75172;BME280;63750;52.418;20.742;2024-02-23T03:45:06;98575.48;;;9.93;67.12
75172;BME280;63750;52.418;20.742;2024-02-23T03:47:35;98578.98;;;9.85;67.86
75172;BME280;63750;52.418;20.742;2024-02-23T03:50:03;98582.36;;;9.85;67.64
75172;BME280;63750;52.418;20.742;2024-02-23T03:52:31;98581.48;;;9.87;68.38
75172;BME280;63750;52.418;20.742;2024-02-23T03:54:59;98589.55;;;9.86;68.79
75172;BME280;63750;52.418;20.742;2024-02-23T03:57:27;98592.33;;;9.82;69.58
75172;BME280;63750;52.418;20.742;2024-02-23T03:59:56;98593.65;;;9.76;70.19
75172;BME280;63750;52.418;20.742;2024-02-23T04:02:25;98593.47;;;9.75;70.17
75172;BME280;63750;52.418;20.742;2024-02-23T04:04:53;98594.61;;;9.71;70.92
75172;BME280;63750;52.418;20.742;2024-02-23T04:07:21;98595.41;;;9.70;70.90
75172;BME280;63750;52.418;20.742;2024-02-23T04:09:49;98592.80;;;9.64;71.50
75172;BME280;63750;52.418;20.742;2024-02-23T04:12:17;98591.70;;;9.58;71.77
75172;BME280;63750;52.418;20.742;2024-02-23T04:14:46;98599.66;;;9.56;72.29
75172;BME280;63750;52.418;20.742;2024-02-23T04:17:14;98597.42;;;9.56;72.22
75172;BME280;63750;52.418;20.742;2024-02-23T04:19:43;98593.95;;;9.52;72.98
75172;BME280;63750;52.418;20.742;2024-02-23T04:22:11;98600.62;;;9.51;72.70
75172;BME280;63750;52.418;20.742;2024-02-23T04:24:41;98601.83;;;9.51;72.79
75172;BME280;63750;52.418;20.742;2024-02-23T04:27:09;98604.67;;;9.52;72.70
75172;BME280;63750;52.418;20.742;2024-02-23T04:29:37;98603.16;;;9.52;73.06
75172;BME280;63750;52.418;20.742;2024-02-23T04:32:06;98607.84;;;9.47;73.87
75172;BME280;63750;52.418;20.742;2024-02-23T04:34:35;98607.69;;;9.45;73.53
75172;BME280;63750;52.418;20.742;2024-02-23T04:37:03;98610.17;;;9.45;73.57
75172;BME280;63750;52.418;20.742;2024-02-23T04:39:31;98614.14;;;9.47;73.73
75172;BME280;63750;52.418;20.742;2024-02-23T04:41:59;98608.48;;;9.46;74.02
75172;BME280;63750;52.418;20.742;2024-02-23T04:44:27;98610.23;;;9.50;74.31
75172;BME280;63750;52.418;20.742;2024-02-23T04:46:56;98610.60;;;9.50;73.95
75172;BME280;63750;52.418;20.742;2024-02-23T04:49:24;98611.85;;;9.50;74.07
75172;BME280;63750;52.418;20.742;2024-02-23T04:51:53;98614.37;;;9.48;74.48
75172;BME280;63750;52.418;20.742;2024-02-23T04:54:21;98620.06;;;9.51;74.31
75172;BME280;63750;52.418;20.742;2024-02-23T04:56:49;98619.83;;;9.53;73.79
75172;BME280;63750;52.418;20.742;2024-02-23T04:59:17;98620.77;;;9.51;74.37
75172;BME280;63750;52.418;20.742;2024-02-23T05:01:45;98624.59;;;9.44;75.00
75172;BME280;63750;52.418;20.742;2024-02-23T05:04:13;98620.48;;;9.41;74.96
75172;BME280;63750;52.418;20.742;2024-02-23T05:06:41;98623.70;;;9.33;75.54
75172;BME280;63750;52.418;20.742;2024-02-23T05:09:10;98622.75;;;9.32;76.10
75172;BME280;63750;52.418;20.742;2024-02-23T05:11:39;98624.88;;;9.37;75.66
75172;BME280;63750;52.418;20.742;2024-02-23T05:14:07;98632.74;;;9.41;75.54
75172;BME280;63750;52.418;20.742;2024-02-23T05:16:35;98640.50;;;9.39;75.92
75172;BME280;63750;52.418;20.742;2024-02-23T05:19:03;98636.55;;;9.41;75.95
75172;BME280;63750;52.418;20.742;2024-02-23T05:21:31;98640.70;;;9.44;76.05
75172;BME280;63750;52.418;20.742;2024-02-23T05:23:59;98642.06;;;9.42;76.22
75172;BME280;63750;52.418;20.742;2024-02-23T05:26:27;98647.20;;;9.42;76.63
75172;BME280;63750;52.418;20.742;2024-02-23T05:28:55;98646.89;;;9.45;76.65
75172;BME280;63750;52.418;20.742;2024-02-23T05:31:45;98651.41;;;9.40;76.51
75172;BME280;63750;52.418;20.742;2024-02-23T05:34:14;98653.27;;;9.40;77.11
75172;BME280;63750;52.418;20.742;2024-02-23T05:36:42;98658.20;;;9.40;77.06
75172;BME280;63750;52.418;20.742;2024-02-23T05:39:10;98659.07;;;9.39;77.07
75172;BME280;63750;52.418;20.742;2024-02-23T05:41:38;98665.10;;;9.37;76.93
75172;BME280;63750;52.418;20.742;2024-02-23T05:44:07;98670.69;;;9.33;77.47
75172;BME280;63750;52.418;20.742;2024-02-23T05:46:36;98664.04;;;9.40;77.25
75172;BME280;63750;52.418;20.742;2024-02-23T05:49:04;98674.67;;;9.45;77.40
75172;BME280;63750;52.418;20.742;2024-02-23T05:51:32;98676.30;;;9.41;77.75
75172;BME280;63750;52.418;20.742;2024-02-23T05:54:00;98683.55;;;9.46;77.25
75172;BME280;63750;52.418;20.742;2024-02-23T05:56:29;98681.45;;;9.47;76.88
75172;BME280;63750;52.418;20.742;2024-02-23T05:58:57;98682.41;;;9.55;77.24
75172;BME280;63750;52.418;20.742;2024-02-23T06:01:25;98687.75;;;9.54;76.96
75172;BME280;63750;52.418;20.742;2024-02-23T06:03:53;98687.22;;;9.53;77.01
75172;BME280;63750;52.418;20.742;2024-02-23T06:06:21;98696.70;;;9.47;77.43
75172;BME280;63750;52.418;20.742;2024-02-23T06:08:49;98700.25;;;9.45;77.91
75172;BME280;63750;52.418;20.742;2024-02-23T06:11:17;98697.17;;;9.46;78.05
75172;BME280;63750;52.418;20.742;2024-02-23T06:13:45;98706.02;;;9.41;78.52
75172;BME280;63750;52.418;20.742;2024-02-23T06:16:14;98709.77;;;9.42;78.45
75172;BME280;63750;52.418;20.742;2024-02-23T06:18:42;98716.50;;;9.42;78.17
75172;BME280;63750;52.418;20.742;2024-02-23T06:21:14;98713.85;;;9.41;78.54
75172;BME280;63750;52.418;20.742;2024-02-23T06:23:43;98708.86;;;9.46;78.64
75172;BME280;63750;52.418;20.742;2024-02-23T06:26:11;98711.79;;;9.51;78.33
75172;BME280;63750;52.418;20.742;2024-02-23T06:28:40;98720.58;;;9.42;79.15
75172;BME280;63750;52.418;20.742;2024-02-23T06:31:14;98728.45;;;9.41;79.33
75172;BME280;63750;52.418;20.742;2024-02-23T06:33:42;98733.57;;;9.38;79.22
75172;BME280;63750;52.418;20.742;2024-02-23T06:36:11;98735.55;;;9.41;79.55
75172;BME280;63750;52.418;20.742;2024-02-23T06:38:39;98748.21;;;9.43;79.33
75172;BME280;63750;52.418;20.742;2024-02-23T06:41:07;98741.92;;;9.52;79.04
75172;BME280;63750;52.418;20.742;2024-02-23T06:43:35;98746.16;;;9.55;78.97
75172;BME280;63750;52.418;20.742;2024-02-23T06:46:07;98750.23;;;9.60;79.28
75172;BME280;63750;52.418;20.742;2024-02-23T06:48:35;98747.41;;;9.57;78.96
75172;BME280;63750;52.418;20.742;2024-02-23T06:51:04;98753.08;;;9.59;79.20
75172;BME280;63750;52.418;20.742;2024-02-23T06:53:32;98750.89;;;9.62;78.82
75172;BME280;63750;52.418;20.742;2024-02-23T06:56:00;98755.23;;;9.66;78.78
75172;BME280;63750;52.418;20.742;2024-02-23T06:58:28;98752.10;;;9.63;79.21
75172;BME280;63750;52.418;20.742;2024-02-23T07:00:57;98756.30;;;9.63;79.13
75172;BME280;63750;52.418;20.742;2024-02-23T07:03:25;98758.25;;;9.69;79.06
75172;BME280;63750;52.418;20.742;2024-02-23T07:05:53;98767.13;;;9.69;79.00
75172;BME280;63750;52.418;20.742;2024-02-23T07:08:21;98771.72;;;9.69;78.52
75172;BME280;63750;52.418;20.742;2024-02-23T07:10:49;98770.34;;;9.67;78.87
75172;BME280;63750;52.418;20.742;2024-02-23T07:13:17;98772.23;;;9.69;79.20
75172;BME280;63750;52.418;20.742;2024-02-23T07:15:45;98780.09;;;9.72;78.73
75172;BME280;63750;52.418;20.742;2024-02-23T07:18:14;98783.38;;;9.75;78.56
75172;BME280;63750;52.418;20.742;2024-02-23T07:20:42;98790.66;;;9.78;78.73
75172;BME280;63750;52.418;20.742;2024-02-23T07:23:10;98791.80;;;9.80;78.64
75172;BME280;63750;52.418;20.742;2024-02-23T07:25:38;98795.64;;;9.82;78.30
75172;BME280;63750;52.418;20.742;2024-02-23T07:28:06;98801.34;;;9.84;78.38
75172;BME280;63750;52.418;20.742;2024-02-23T07:30:35;98800.02;;;9.85;78.09
75172;BME280;63750;52.418;20.742;2024-02-23T07:33:03;98805.29;;;9.85;78.46
75172;BME280;63750;52.418;20.742;2024-02-23T07:35:31;98805.29;;;9.85;78.25
75172;BME280;63750;52.418;20.742;2024-02-23T07:37:59;98810.96;;;9.81;78.09
75172;BME280;63750;52.418;20.742;2024-02-23T07:40:27;98808.48;;;9.88;78.22
75172;BME280;63750;52.418;20.742;2024-02-23T07:42:55;98815.10;;;9.89;78.31
75172;BME280;63750;52.418;20.742;2024-02-23T07:45:23;98822.50;;;9.86;78.32
75172;BME280;63750;52.418;20.742;2024-02-23T07:47:51;98821.30;;;9.90;78.26
75172;BME280;63750;52.418;20.742;2024-02-23T07:50:20;98832.05;;;9.84;78.43
75172;BME280;63750;52.418;20.742;2024-02-23T07:52:48;98835.39;;;9.91;78.47
75172;BME280;63750;52.418;20.742;2024-02-23T07:55:16;98835.89;;;9.93;78.43
75172;BME280;63750;52.418;20.742;2024-02-23T07:57:44;98842.16;;;10.00;78.08
75172;BME280;63750;52.418;20.742;2024-02-23T08:00:13;98845.27;;;10.04;77.76
75172;BME280;63750;52.418;20.742;2024-02-23T08:02:41;98849.29;;;10.03;78.20
75172;BME280;63750;52.418;20.742;2024-02-23T08:05:10;98855.19;;;10.04;77.87
75172;BME280;63750;52.418;20.742;2024-02-23T08:07:38;98855.36;;;9.99;77.93
75172;BME280;63750;52.418;20.742;2024-02-23T08:10:07;98856.52;;;10.05;77.91
75172;BME280;63750;52.418;20.742;2024-02-23T08:12:36;98864.95;;;10.05;78.13
75172;BME280;63750;52.418;20.742;2024-02-23T08:15:05;98872.84;;;10.13;78.23
75172;BME280;63750;52.418;20.742;2024-02-23T08:17:33;98874.27;;;10.17;77.76
75172;BME280;63750;52.418;20.742;2024-02-23T08:20:01;98870.92;;;10.12;78.06
75172;BME280;63750;52.418;20.742;2024-02-23T08:22:30;98880.23;;;10.19;77.75
75172;BME280;63750;52.418;20.742;2024-02-23T08:24:58;98883.90;;;10.22;77.96
75172;BME280;63750;52.418;20.742;2024-02-23T08:27:26;98881.95;;;10.31;78.00
75172;BME280;63750;52.418;20.742;2024-02-23T08:29:54;98879.27;;;10.28;78.07
75172;BME280;63750;52.418;20.742;2024-02-23T08:32:22;98885.27;;;10.29;78.05
75172;BME280;63750;52.418;20.742;2024-02-23T08:34:50;98890.04;;;10.36;78.07
75172;BME280;63750;52.418;20.742;2024-02-23T08:37:18;98896.16;;;10.40;77.99
75172;BME280;63750;52.418;20.742;2024-02-23T08:39:46;98898.48;;;10.39;77.97
75172;BME280;63750;52.418;20.742;2024-02-23T08:42:15;98898.86;;;10.42;78.16
75172;BME280;63750;52.418;20.742;2024-02-23T08:44:43;98906.66;;;10.38;78.12
75172;BME280;63750;52.418;20.742;2024-02-23T08:47:11;98906.04;;;10.41;77.95
75172;BME280;63750;52.418;20.742;2024-02-23T08:49:39;98909.52;;;10.44;78.25
75172;BME280;63750;52.418;20.742;2024-02-23T08:52:07;98909.11;;;10.47;78.28
75172;BME280;63750;52.418;20.742;2024-02-23T08:54:35;98910.14;;;10.47;78.26
75172;BME280;63750;52.418;20.742;2024-02-23T08:57:04;98912.79;;;10.51;78.42
75172;BME280;63750;52.418;20.742;2024-02-23T08:59:32;98922.47;;;10.53;78.67
75172;BME280;63750;52.418;20.742;2024-02-23T09:02:00;98923.75;;;10.62;78.74
75172;BME280;63750;52.418;20.742;2024-02-23T09:04:28;98924.45;;;10.70;78.41
75172;BME280;63750;52.418;20.742;2024-02-23T09:06:56;98929.55;;;10.73;77.93
75172;BME280;63750;52.418;20.742;2024-02-23T09:09:25;98928.38;;;10.72;77.96
75172;BME280;63750;52.418;20.742;2024-02-23T09:11:53;98930.37;;;10.78;78.17
75172;BME280;63750;52.418;20.742;2024-02-23T09:14:21;98938.38;;;10.78;77.96
75172;BME280;63750;52.418;20.742;2024-02-23T09:16:49;98939.96;;;10.78;77.88
75172;BME280;63750;52.418;20.742;2024-02-23T09:19:17;98941.12;;;10.80;77.90
75172;BME280;63750;52.418;20.742;2024-02-23T09:21:45;98944.42;;;10.78;78.32
75172;BME280;63750;52.418;20.742;2024-02-23T09:24:14;98946.77;;;10.80;78.20
75172;BME280;63750;52.418;20.742;2024-02-23T09:26:42;98945.83;;;10.81;78.26
75172;BME280;63750;52.418;20.742;2024-02-23T09:29:14;98946.45;;;10.86;78.33
75172;BME280;63750;52.418;20.742;2024-02-23T09:31:42;98946.53;;;10.93;78.36
75172;BME280;63750;52.418;20.742;2024-02-23T09:34:10;98948.87;;;10.90;78.36
75172;BME280;63750;52.418;20.742;2024-02-23T09:36:39;98952.25;;;10.93;78.57
75172;BME280;63750;52.418;20.742;2024-02-23T09:39:07;98962.34;;;11.00;78.47
75172;BME280;63750;52.418;20.742;2024-02-23T09:41:36;98957.66;;;11.06;78.37
75172;BME280;63750;52.418;20.742;2024-02-23T09:44:06;98963.80;;;11.13;77.94
75172;BME280;63750;52.418;20.742;2024-02-23T09:46:37;98964.41;;;11.15;78.06
75172;BME280;63750;52.418;20.742;2024-02-23T09:49:06;98974.04;;;11.09;78.33
75172;BME280;63750;52.418;20.742;2024-02-23T09:51:36;98979.80;;;11.13;78.42
75172;BME280;63750;52.418;20.742;2024-02-23T09:54:08;98985.53;;;11.13;78.04
75172;BME280;63750;52.418;20.742;2024-02-23T09:56:37;98985.51;;;11.18;77.81
75172;BME280;63750;52.418;20.742;2024-02-23T09:59:09;98981.88;;;11.27;78.00
75172;BME280;63750;52.418;20.742;2024-02-23T10:01:37;98984.90;;;11.31;77.78
75172;BME280;63750;52.418;20.742;2024-02-23T10:04:06;98989.34;;;11.36;77.77
75172;BME280;63750;52.418;20.742;2024-02-23T10:06:34;98988.30;;;11.37;77.13
75172;BME280;63750;52.418;20.742;2024-02-23T10:09:02;98991.58;;;11.40;77.18
75172;BME280;63750;52.418;20.742;2024-02-23T10:11:30;98987.11;;;11.41;77.25
75172;BME280;63750;52.418;20.742;2024-02-23T10:13:58;98986.98;;;11.52;77.05
75172;BME280;63750;52.418;20.742;2024-02-23T10:16:27;98993.40;;;11.56;76.63
75172;BME280;63750;52.418;20.742;2024-02-23T10:18:55;98995.63;;;11.55;76.50
75172;BME280;63750;52.418;20.742;2024-02-23T10:21:25;99001.64;;;11.57;76.22
75172;BME280;63750;52.418;20.742;2024-02-23T10:23:53;99001.89;;;11.56;76.23
75172;BME280;63750;52.418;20.742;2024-02-23T10:26:21;99002.07;;;11.59;76.43
75172;BME280;63750;52.418;20.742;2024-02-23T10:28:49;99003.29;;;11.60;76.55
75172;BME280;63750;52.418;20.742;2024-02-23T10:31:18;99005.31;;;11.59;76.20
75172;BME280;63750;52.418;20.742;2024-02-23T10:33:47;99010.59;;;11.60;76.51
75172;BME280;63750;52.418;20.742;2024-02-23T10:36:16;99011.04;;;11.69;76.54
75172;BME280;63750;52.418;20.742;2024-02-23T10:38:46;99013.33;;;11.72;76.79
75172;BME280;63750;52.418;20.742;2024-02-23T10:41:18;99021.23;;;11.78;76.75
75172;BME280;63750;52.418;20.742;2024-02-23T10:43:48;99023.55;;;11.79;75.95
75172;BME280;63750;52.418;20.742;2024-02-23T10:46:17;99029.85;;;11.71;75.88
75172;BME280;63750;52.418;20.742;2024-02-23T10:48:46;99030.66;;;11.70;76.17
75172;BME280;63750;52.418;20.742;2024-02-23T10:51:16;99036.09;;;11.75;76.07
75172;BME280;63750;52.418;20.742;2024-02-23T10:53:45;99037.40;;;11.74;76.01
75172;BME280;63750;52.418;20.742;2024-02-23T10:56:14;99040.90;;;11.70;75.89
75172;BME280;63750;52.418;20.742;2024-02-23T10:58:42;99041.38;;;11.72;76.17
75172;BME280;63750;52.418;20.742;2024-02-23T11:01:10;99046.79;;;11.72;76.10
75172;BME280;63750;52.418;20.742;2024-02-23T11:03:42;99050.56;;;11.68;76.36
75172;BME280;63750;52.418;20.742;2024-02-23T11:06:10;99058.91;;;11.70;76.51
75172;BME280;63750;52.418;20.742;2024-02-23T11:08:39;99058.47;;;11.73;76.57
75172;BME280;63750;52.418;20.742;2024-02-23T11:11:11;99062.81;;;11.74;76.65
75172;BME280;63750;52.418;20.742;2024-02-23T11:13:40;99064.09;;;11.77;76.55
75172;BME280;63750;52.418;20.742;2024-02-23T11:16:09;99067.79;;;11.74;76.72
75172;BME280;63750;52.418;20.742;2024-02-23T11:18:39;99070.91;;;11.73;76.70
75172;BME280;63750;52.418;20.742;2024-02-23T11:21:10;99075.60;;;11.74;76.73
75172;BME280;63750;52.418;20.742;2024-02-23T11:23:43;99082.92;;;11.74;77.05
75172;BME280;63750;52.418;20.742;2024-02-23T11:26:12;99079.56;;;11.77;76.82
75172;BME280;63750;52.418;20.742;2024-02-23T11:28:46;99082.59;;;11.80;77.04
75172;BME280;63750;52.418;20.742;2024-02-23T11:31:18;99086.96;;;11.83;76.96
75172;BME280;63750;52.418;20.742;2024-02-23T11:33:50;99089.61;;;11.85;76.67
75172;BME280;63750;52.418;20.742;2024-02-23T11:36:27;99090.89;;;11.82;76.62
75172;BME280;63750;52.418;20.742;2024-02-23T11:38:58;99092.55;;;11.82;76.47
75172;BME280;63750;52.418;20.742;2024-02-23T11:41:27;99093.40;;;11.80;76.79
75172;BME280;63750;52.418;20.742;2024-02-23T11:43:56;99102.12;;;11.80;76.85
75172;BME280;63750;52.418;20.742;2024-02-23T11:46:25;99108.27;;;11.79;77.23
75172;BME280;63750;52.418;20.742;2024-02-23T11:48:53;99107.64;;;11.76;77.08
75172;BME280;63750;52.418;20.742;2024-02-23T11:51:22;99114.69;;;11.80;77.07
75172;BME280;63750;52.418;20.742;2024-02-23T11:53:51;99116.61;;;11.82;76.98
75172;BME280;63750;52.418;20.742;2024-02-23T11:56:19;99122.33;;;11.83;76.95
75172;BME280;63750;52.418;20.742;2024-02-23T11:58:48;99124.39;;;11.83;77.14
75172;BME280;63750;52.418;20.742;2024-02-23T12:01:16;99125.48;;;11.88;77.02
75172;BME280;63750;52.418;20.742;2024-02-23T12:03:44;99129.34;;;11.88;76.88
75172;BME280;63750;52.418;20.742;2024-02-23T12:06:13;99135.50;;;11.89;77.21
75172;BME280;63750;52.418;20.742;2024-02-23T12:08:41;99141.05;;;11.87;76.90
75172;BME280;63750;52.418;20.742;2024-02-23T12:11:10;99142.22;;;11.86;77.21
75172;BME280;63750;52.418;20.742;2024-02-23T12:13:39;99148.14;;;11.88;77.16
75172;BME280;63750;52.418;20.742;2024-02-23T12:16:08;99153.84;;;11.88;76.95
75172;BME280;63750;52.418;20.742;2024-02-23T12:18:37;99156.52;;;11.86;77.08
75172;BME280;63750;52.418;20.742;2024-02-23T12:21:06;99160.27;;;11.86;76.71
75172;BME280;63750;52.418;20.742;2024-02-23T12:23:42;99159.80;;;11.83;77.33
75172;BME280;63750;52.418;20.742;2024-02-23T12:26:12;99159.42;;;11.86;77.03
75172;BME280;63750;52.418;20.742;2024-02-23T12:28:40;99167.88;;;11.88;77.18
75172;BME280;63750;52.418;20.742;2024-02-23T12:31:09;99170.42;;;11.89;77.30
75172;BME280;63750;52.418;20.742;2024-02-23T12:33:38;99173.79;;;11.91;77.41
75172;BME280;63750;52.418;20.742;2024-02-23T12:36:08;99173.94;;;11.96;77.36
75172;BME280;63750;52.418;20.742;2024-02-23T12:38:36;99176.73;;;11.97;78.53
75172;BME280;63750;52.418;20.742;2024-02-23T12:41:05;99175.96;;;11.98;77.59
75172;BME280;63750;52.418;20.742;2024-02-23T12:43:33;99178.30;;;11.96;77.22
75172;BME280;63750;52.418;20.742;2024-02-23T12:46:01;99181.63;;;11.95;77.25
75172;BME280;63750;52.418;20.742;2024-02-23T12:48:30;99183.71;;;11.95;77.55
75172;BME280;63750;52.418;20.742;2024-02-23T12:50:58;99184.05;;;12.02;78.20
75172;BME280;63750;52.418;20.742;2024-02-23T12:53:33;99185.70;;;12.05;77.51
75172;BME280;63750;52.418;20.742;2024-02-23T12:56:02;99187.70;;;12.09;78.51
75172;BME280;63750;52.418;20.742;2024-02-23T12:58:31;99188.61;;;12.07;77.09
75172;BME280;63750;52.418;20.742;2024-02-23T13:00:59;99192.77;;;12.03;76.85
75172;BME280;63750;52.418;20.742;2024-02-23T13:03:28;99192.60;;;11.97;76.96